Time;durP1;ratioP1;P1;durP2;ratioP2;P2;SDS_P1;SDS_P2;PMS_P1;PMS_P2;Temp;Humidity;BMP_temperature;BMP_pressure;BME280_temperature;BME280_humidity;BME280_pressure;Samples;Min_cycle;Max_cycle;Signal;HPM_P1;HPM_P2
2022/01/26 00:00:04;;;;;;;86.73;31.03;;;;;;;2.62;71.40;103273.91;5047482;28;20061;-79
2022/01/26 00:08:05;;;;;;;84.40;31.00;;;;;;;2.52;72.03;103282.88;5049988;28;20043;-79
2022/01/26 00:10:31;;;;;;;86.83;31.60;;;;;;;2.50;71.73;103289.63;5049499;28;20037;-80
2022/01/26 00:12:56;;;;;;;86.17;31.27;;;;;;;2.49;71.88;103282.72;5044945;28;20111;-79
2022/01/26 00:15:21;;;;;;;89.60;30.27;;;;;;;2.47;71.77;103292.09;5050152;28;20067;-79
2022/01/26 00:17:48;;;;;;;89.77;31.63;;;;;;;2.45;71.54;103286.84;5049513;28;20464;-79
2022/01/26 00:20:33;;;;;;;91.40;31.77;;;;;;;2.45;72.35;103286.84;5047964;28;20060;-80
2022/01/26 00:23:32;;;;;;;92.17;31.40;;;;;;;2.45;71.28;103284.28;5048649;28;20155;-79
2022/01/26 00:26:07;;;;;;;85.95;29.17;;;;;;;2.44;71.40;103285.09;5044819;28;20032;-79
2022/01/26 00:39:28;;;;;;;91.87;29.87;;;;;;;2.35;70.29;103266.69;5052938;28;20538;-80
2022/01/26 00:41:57;;;;;;;88.40;31.57;;;;;;;2.34;71.19;103267.50;5052923;28;20037;-79
2022/01/26 00:44:30;;;;;;;90.93;30.80;;;;;;;2.36;71.23;103271.03;5050360;28;20021;-79
2022/01/26 00:46:55;;;;;;;84.60;29.00;;;;;;;2.38;71.17;103269.41;5049997;28;20021;-79
2022/01/26 00:49:21;;;;;;;96.60;31.97;;;;;;;2.37;71.21;103267.66;5052625;28;20035;-79
2022/01/26 00:51:46;;;;;;;88.70;28.90;;;;;;;2.34;71.29;103268.34;5051327;28;20526;-79
2022/01/26 00:54:12;;;;;;;88.10;29.87;;;;;;;2.33;70.82;103270.88;5054154;28;20025;-79
2022/01/26 00:56:38;;;;;;;82.10;28.63;;;;;;;2.31;70.42;103268.19;5050354;28;20028;-80
2022/01/26 00:59:04;;;;;;;80.90;29.37;;;;;;;2.28;70.68;103268.94;5052400;28;20416;-80
2022/01/26 01:01:31;;;;;;;86.50;28.93;;;;;;;2.28;70.74;103263.81;5052377;28;20112;-79
2022/01/26 01:03:56;;;;;;;82.87;27.87;;;;;;;2.29;71.09;103269.84;5051257;28;20031;-79
2022/01/26 01:06:31;;;;;;;89.47;30.10;;;;;;;2.32;71.23;103274.25;5049611;28;20029;-80
2022/01/26 01:08:58;;;;;;;87.57;29.57;;;;;;;2.31;71.70;103265.63;5052163;28;20025;-79
2022/01/26 01:11:24;;;;;;;81.63;29.60;;;;;;;2.32;71.74;103269.09;5048219;28;20111;-79
2022/01/26 01:13:50;;;;;;;92.80;31.10;;;;;;;2.30;71.07;103265.56;5052478;28;20025;-79
2022/01/26 01:16:19;;;;;;;93.57;30.80;;;;;;;2.28;71.83;103263.81;5051288;28;20031;-79
2022/01/26 01:21:38;;;;;;;84.07;28.43;;;;;;;2.27;71.50;103254.34;5052905;28;20044;-79
2022/01/26 01:32:26;;;;;;;99.87;31.17;;;;;;;2.26;70.62;103244.00;5050298;28;20024;-79
2022/01/26 01:34:35;;;;;;;97.73;31.03;;;;;;;2.21;71.29;103240.34;5045280;28;20032;-79
2022/01/26 01:37:05;;;;;;;86.13;29.03;;;;;;;2.19;71.07;103237.69;5050169;28;20078;-79
2022/01/26 01:39:31;;;;;;;93.50;29.93;;;;;;;2.21;71.06;103230.94;5050729;28;20048;-79
2022/01/26 01:41:56;;;;;;;95.10;30.17;;;;;;;2.20;71.56;103236.00;5049573;28;20017;-79
2022/01/26 01:44:22;;;;;;;102.10;32.00;;;;;;;2.22;71.47;103240.38;5051708;28;20021;-79
2022/01/26 01:46:48;;;;;;;90.33;30.53;;;;;;;2.23;72.10;103237.00;5050465;28;20028;-79
2022/01/26 01:49:15;;;;;;;90.83;30.10;;;;;;;2.25;71.37;103237.97;5051209;28;20045;-79
2022/01/26 01:51:49;;;;;;;98.07;30.60;;;;;;;2.23;72.00;103226.75;5051173;28;20029;-79
2022/01/26 01:54:17;;;;;;;92.70;30.33;;;;;;;2.25;72.01;103234.53;5051958;28;20465;-79
2022/01/26 01:56:48;;;;;;;94.40;31.20;;;;;;;2.27;72.08;103235.50;5049797;28;20225;-79
2022/01/26 01:59:13;;;;;;;96.15;30.77;;;;;;;2.26;71.46;103242.31;5048617;28;20483;-79
2022/01/26 02:01:38;;;;;;;97.53;30.80;;;;;;;2.25;71.62;103237.97;5050218;28;20036;-79
2022/01/26 02:04:04;;;;;;;98.93;31.70;;;;;;;2.26;71.46;103239.75;5047470;28;20544;-79
2022/01/26 02:06:29;;;;;;;94.07;30.63;;;;;;;2.27;71.37;103236.38;5049067;28;20028;-80
2022/01/26 02:08:54;;;;;;;98.60;31.47;;;;;;;2.27;71.37;103235.50;5047941;28;20041;-79
2022/01/26 02:11:20;;;;;;;90.70;29.33;;;;;;;2.26;72.05;103228.59;5050162;28;20051;-79
2022/01/26 02:14:02;;;;;;;95.67;30.03;;;;;;;2.27;70.90;103225.22;5051052;28;20029;-79
2022/01/26 02:19:25;;;;;;;90.57;29.00;;;;;;;2.31;71.88;103201.41;5049738;28;20053;-79
2022/01/26 02:57:06;;;;;;;89.83;30.13;;;;;;;2.45;71.13;103172.94;5048715;28;20037;-79
2022/01/26 03:00:01;;;;;;;86.90;28.98;;;;;;;2.46;70.86;103169.56;5047607;28;20021;-79
2022/01/26 03:04:51;;;;;;;92.50;29.93;;;;;;;2.40;70.62;103159.84;5050690;28;20492;-79
2022/01/26 03:07:27;;;;;;;92.03;30.43;;;;;;;2.39;70.48;103169.28;5048058;28;20025;-79
2022/01/26 03:10:03;;;;;;;88.70;29.60;;;;;;;2.38;70.65;103172.66;5048728;28;20036;-79
2022/01/26 03:12:41;;;;;;;88.17;30.40;;;;;;;2.39;70.27;103173.53;5046821;28;20027;-79
2022/01/26 03:15:44;;;;;;;86.03;29.73;;;;;;;2.34;70.60;103160.47;5049298;28;20035;-79
2022/01/26 03:20:28;;;;;;;90.40;30.60;;;;;;;2.33;70.71;103157.84;5047317;28;20053;-79
2022/01/26 03:33:25;;;;;;;95.00;31.03;;;;;;;2.33;71.09;103171.53;5048523;28;20063;-79
2022/01/26 03:35:56;;;;;;;89.80;29.87;;;;;;;2.32;71.25;103167.22;5047669;28;20028;-79
2022/01/26 03:38:40;;;;;;;98.20;30.43;;;;;;;2.33;71.22;103157.84;5050569;28;20112;-79
2022/01/26 03:41:34;;;;;;;94.80;30.30;;;;;;;2.35;71.26;103163.94;5048708;28;20021;-79
2022/01/26 03:44:00;;;;;;;90.57;29.43;;;;;;;2.36;71.25;103168.25;5049954;28;20067;-79
2022/01/26 03:46:25;;;;;;;89.37;30.33;;;;;;;2.37;71.53;103170.03;5049383;28;20052;-79
2022/01/26 03:48:51;;;;;;;91.67;31.07;;;;;;;2.38;71.26;103182.94;5047882;28;20294;-79
2022/01/26 03:51:17;;;;;;;94.73;31.37;;;;;;;2.38;71.55;103166.66;5048345;28;20029;-79
2022/01/26 03:53:42;;;;;;;94.17;30.63;;;;;;;2.39;71.65;103155.56;5048223;28;20376;-79
2022/01/26 03:56:07;;;;;;;93.67;30.80;;;;;;;2.37;71.31;103159.75;5049103;28;20025;-79
2022/01/26 03:58:33;;;;;;;94.80;31.57;;;;;;;2.34;71.28;103152.75;5047883;28;20399;-79
2022/01/26 04:00:58;;;;;;;92.93;30.47;;;;;;;2.34;71.56;103160.47;5050384;28;20036;-79
2022/01/26 04:03:23;;;;;;;88.83;28.17;;;;;;;2.35;71.29;103156.22;5052768;28;20029;-79
2022/01/26 04:05:49;;;;;;;91.07;30.83;;;;;;;2.35;71.68;103157.09;5050252;28;20044;-79
2022/01/26 04:08:28;;;;;;;91.00;28.60;;;;;;;2.34;71.64;103159.59;5052198;28;20053;-79
2022/01/26 04:13:19;;;;;;;93.00;30.93;;;;;;;2.34;71.92;103154.47;5050532;28;20071;-79
2022/01/26 04:15:44;;;;;;;91.73;30.30;;;;;;;2.31;71.89;103147.47;5053032;28;20098;-79
2022/01/26 04:18:14;;;;;;;87.10;29.80;;;;;;;2.31;72.13;103146.63;5051044;28;20033;-79
2022/01/26 04:20:44;;;;;;;91.30;30.07;;;;;;;2.26;72.33;103142.13;5052396;28;20537;-79
2022/01/26 04:23:26;;;;;;;92.63;29.63;;;;;;;2.25;72.59;103135.22;5048031;28;20029;-79
2022/01/26 04:25:53;;;;;;;94.93;30.77;;;;;;;2.21;72.34;103135.03;5050154;28;20028;-79
2022/01/26 04:28:27;;;;;;;95.03;30.13;;;;;;;2.20;72.72;103139.31;5052109;28;20029;-79
2022/01/26 04:30:53;;;;;;;90.47;28.20;;;;;;;2.20;73.14;103147.00;5052341;28;20033;-79
2022/01/26 04:33:18;;;;;;;95.30;29.20;;;;;;;2.21;73.70;103153.91;5051812;28;20039;-79
2022/01/26 04:35:46;;;;;;;95.57;30.20;;;;;;;2.21;72.93;103163.28;5050217;28;20452;-79
2022/01/26 04:38:37;;;;;;;92.87;29.60;;;;;;;2.21;72.86;103161.63;5050267;28;20024;-79
2022/01/26 04:43:37;;;;;;;94.32;29.88;;;;;;;2.23;72.88;103177.06;5051400;28;20033;-79
2022/01/26 04:46:03;;;;;;;89.63;29.33;;;;;;;2.24;72.93;103182.28;5051326;28;20113;-79
2022/01/26 04:48:28;;;;;;;97.20;31.23;;;;;;;2.22;73.21;103183.03;5050658;28;20136;-79
2022/01/26 04:50:53;;;;;;;96.47;28.60;;;;;;;2.22;73.04;103191.59;5052613;28;20039;-79
2022/01/26 04:53:19;;;;;;;96.73;30.33;;;;;;;2.23;73.49;103188.22;5049993;28;20048;-79
2022/01/26 04:55:45;;;;;;;87.50;29.13;;;;;;;2.26;73.41;103193.50;5049585;28;20098;-79
2022/01/26 04:58:10;;;;;;;92.07;30.20;;;;;;;2.26;73.60;103172.09;5050639;28;20046;-79
2022/01/26 05:00:36;;;;;;;99.67;30.90;;;;;;;2.26;73.39;103177.22;5048832;28;20033;-79
2022/01/26 05:03:01;;;;;;;96.23;30.07;;;;;;;2.24;73.65;103184.84;5052290;28;20036;-79
2022/01/26 05:05:26;;;;;;;93.53;30.23;;;;;;;2.25;73.58;103175.47;5051454;28;20123;-79
2022/01/26 05:07:52;;;;;;;96.00;29.97;;;;;;;2.23;73.80;103172.81;5051374;28;20493;-79
2022/01/26 05:10:17;;;;;;;88.70;28.17;;;;;;;2.24;73.37;103161.72;5048564;28;20037;-79
2022/01/26 05:12:42;;;;;;;97.23;29.57;;;;;;;2.23;73.19;103166.81;5051064;28;20029;-79
2022/01/26 05:15:08;;;;;;;99.77;30.40;;;;;;;2.20;73.29;103170.13;5052542;28;20113;-79
2022/01/26 05:17:35;;;;;;;95.37;30.07;;;;;;;2.19;73.45;103176.06;5047994;28;20384;-82
2022/01/26 05:20:01;;;;;;;91.67;29.27;;;;;;;2.17;73.09;103162.28;5052044;28;20480;-79
2022/01/26 05:22:27;;;;;;;91.70;29.53;;;;;;;2.15;73.06;103148.47;5051275;28;20075;-79
2022/01/26 05:24:55;;;;;;;95.00;29.57;;;;;;;2.11;73.60;103138.84;5051339;28;20025;-79
2022/01/26 05:27:20;;;;;;;99.30;30.40;;;;;;;2.09;73.78;103140.47;5052801;28;20052;-79
2022/01/26 05:29:46;;;;;;;96.17;28.90;;;;;;;2.08;73.61;103136.13;5050996;28;20060;-79
2022/01/26 05:32:11;;;;;;;96.60;28.53;;;;;;;2.07;73.86;103131.81;5051287;28;20024;-79
2022/01/26 05:34:36;;;;;;;97.57;29.50;;;;;;;2.05;73.38;103138.59;5051664;28;20024;-79
2022/01/26 05:37:02;;;;;;;94.67;28.83;;;;;;;2.04;73.81;103136.84;5053762;28;20025;-79
2022/01/26 05:39:27;;;;;;;97.97;29.17;;;;;;;2.02;73.61;103144.44;5052615;28;20040;-79
2022/01/26 05:41:52;;;;;;;99.40;31.37;;;;;;;2.01;73.65;103149.53;5052493;28;20170;-79
2022/01/26 05:44:18;;;;;;;104.80;29.87;;;;;;;2.00;73.68;103132.34;5051522;28;20024;-79
2022/01/26 05:46:47;;;;;;;91.83;28.93;;;;;;;1.97;73.84;103141.66;5052596;28;20029;-79
2022/01/26 05:49:13;;;;;;;102.90;29.50;;;;;;;1.97;74.28;103143.34;5049808;28;20463;-79
2022/01/26 05:51:39;;;;;;;97.73;29.40;;;;;;;1.97;73.68;103141.66;5052257;28;20094;-80
2022/01/26 05:54:07;;;;;;;97.83;29.37;;;;;;;1.96;73.43;103137.34;5049065;28;20035;-80
2022/01/26 05:56:32;;;;;;;101.30;30.10;;;;;;;1.96;73.80;103129.63;5051466;28;20021;-80
2022/01/26 05:58:58;;;;;;;98.97;30.10;;;;;;;1.96;73.65;103136.47;5050945;28;20094;-80
2022/01/26 06:01:23;;;;;;;101.10;29.77;;;;;;;1.93;73.98;103126.91;5048711;28;20040;-79
2022/01/26 06:03:49;;;;;;;102.93;31.10;;;;;;;1.91;74.13;103131.09;5049244;28;20029;-79
2022/01/26 06:06:18;;;;;;;98.00;29.70;;;;;;;1.91;73.65;103120.84;5051080;28;20104;-80
2022/01/26 06:08:43;;;;;;;98.27;29.23;;;;;;;1.91;73.79;103123.41;5051299;28;20060;-80
2022/01/26 06:11:08;;;;;;;98.30;29.10;;;;;;;1.90;73.73;103131.91;5050969;28;20028;-79
2022/01/26 06:13:34;;;;;;;96.40;29.03;;;;;;;1.90;73.94;103139.59;5050422;28;20028;-79
2022/01/26 06:15:59;;;;;;;99.37;29.77;;;;;;;1.90;73.98;103144.75;5049793;28;20033;-79
2022/01/26 06:18:25;;;;;;;92.03;28.37;;;;;;;1.90;73.82;103146.44;5049415;28;20048;-79
2022/01/26 06:20:50;;;;;;;95.73;29.13;;;;;;;1.90;73.34;103155.00;5047760;28;20081;-79
2022/01/26 06:23:16;;;;;;;92.73;28.83;;;;;;;1.91;73.78;103164.47;5065087;28;20025;-79
2022/01/26 06:25:41;;;;;;;105.43;31.70;;;;;;;1.89;73.82;103137.84;5051031;28;20033;-79
2022/01/26 06:28:11;;;;;;;101.93;30.47;;;;;;;1.88;73.90;103120.69;5051503;28;20055;-79
2022/01/26 06:30:37;;;;;;;99.03;29.87;;;;;;;1.88;74.37;103128.38;5050222;28;20025;-79
2022/01/26 06:33:04;;;;;;;102.33;30.60;;;;;;;1.88;74.29;103132.66;5048255;28;20048;-79
2022/01/26 06:35:29;;;;;;;91.47;28.40;;;;;;;1.86;74.11;103130.03;5050017;28;20033;-79
2022/01/26 06:37:55;;;;;;;97.07;30.27;;;;;;;1.87;74.70;103113.81;5050949;28;20028;-79
2022/01/26 06:40:21;;;;;;;97.37;30.70;;;;;;;1.85;74.29;103122.22;5051894;28;20475;-80
2022/01/26 06:43:00;;;;;;;99.47;29.67;;;;;;;1.85;74.64;103133.41;5047627;28;20110;-79
2022/01/26 06:45:29;;;;;;;96.13;28.77;;;;;;;1.84;74.57;103126.50;5047387;28;20025;-80
2022/01/26 06:48:11;;;;;;;103.77;29.93;;;;;;;1.85;74.30;103130.81;5050314;28;20032;-79
2022/01/26 06:50:36;;;;;;;103.72;29.83;;;;;;;1.85;74.53;103143.66;5049144;28;20112;-79
2022/01/26 06:53:01;;;;;;;95.93;28.90;;;;;;;1.86;74.36;103155.69;5050822;28;20105;-79
2022/01/26 06:55:27;;;;;;;99.77;29.93;;;;;;;1.87;74.92;103142.06;5050503;28;20108;-79
2022/01/26 06:57:52;;;;;;;102.27;31.17;;;;;;;1.89;74.77;103135.28;5051187;28;20025;-79
2022/01/26 07:00:18;;;;;;;101.63;31.33;;;;;;;1.91;74.46;103148.19;5048992;28;20033;-79
2022/01/26 07:02:43;;;;;;;98.83;30.33;;;;;;;1.89;74.69;103140.41;5050833;28;20029;-79
2022/01/26 07:05:10;;;;;;;101.13;30.67;;;;;;;1.89;74.90;103140.41;5049472;28;20087;-79
2022/01/26 07:07:36;;;;;;;99.17;30.00;;;;;;;1.89;75.01;103135.28;5051034;28;20082;-79
2022/01/26 07:10:02;;;;;;;102.93;31.17;;;;;;;1.88;75.28;103125.81;5049975;28;20480;-79
2022/01/26 07:12:28;;;;;;;98.03;29.77;;;;;;;1.88;75.12;103130.94;5051330;28;20029;-79
2022/01/26 07:23:09;;;;;;;96.97;30.50;;;;;;;1.91;75.48;103153.34;5046939;28;20091;-79
2022/01/26 07:25:36;;;;;;;99.00;30.43;;;;;;;1.91;75.46;103161.03;5047131;28;20029;-79
2022/01/26 07:28:03;;;;;;;93.30;29.87;;;;;;;1.92;75.68;103168.78;5049394;28;20032;-79
2022/01/26 07:30:30;;;;;;;98.57;31.20;;;;;;;1.92;75.83;103150.81;5047657;28;20078;-80
2022/01/26 07:32:55;;;;;;;104.07;31.47;;;;;;;1.94;75.61;103149.22;5045402;28;20028;-82
2022/01/26 07:35:20;;;;;;;105.30;32.37;;;;;;;1.94;75.79;103163.75;5047136;28;20025;-79
2022/01/26 07:37:47;;;;;;;97.47;29.27;;;;;;;1.93;75.82;103168.00;5043966;28;20025;-79
2022/01/26 07:40:13;;;;;;;99.30;31.03;;;;;;;1.94;76.02;103156.91;5041232;28;20021;-79
2022/01/26 07:42:39;;;;;;;101.30;31.17;;;;;;;1.94;75.98;103140.66;5045678;28;20025;-79
2022/01/26 07:45:07;;;;;;;102.00;31.20;;;;;;;1.92;76.57;103140.56;5045959;28;20033;-79
2022/01/26 07:47:33;;;;;;;94.40;30.60;;;;;;;1.94;76.38;103141.50;5044019;28;20021;-80
2022/01/26 07:50:08;;;;;;;95.33;30.27;;;;;;;1.93;76.74;103152.59;5048279;28;20078;-79
2022/01/26 07:52:39;;;;;;;103.07;32.00;;;;;;;1.95;76.86;103142.41;5045685;28;20021;-79
2022/01/26 07:55:11;;;;;;;104.55;31.40;;;;;;;1.92;77.09;103138.00;5043113;28;20037;-80
2022/01/26 07:57:36;;;;;;;98.55;30.38;;;;;;;1.94;76.81;103158.63;5049545;28;20059;-79
2022/01/26 08:00:03;;;;;;;99.30;31.30;;;;;;;1.92;77.22;103166.22;5044812;28;20045;-79
2022/01/26 08:02:28;;;;;;;99.53;30.93;;;;;;;1.92;77.12;103171.38;5044905;28;20456;-79
2022/01/26 08:04:54;;;;;;;103.53;32.00;;;;;;;1.92;77.35;103176.50;5047415;28;20151;-79
2022/01/26 08:07:19;;;;;;;101.90;31.13;;;;;;;1.94;77.36;103184.28;5049479;28;20029;-79
2022/01/26 08:09:44;;;;;;;106.00;31.87;;;;;;;1.94;77.77;103174.03;5047683;28;20479;-79
2022/01/26 08:12:15;;;;;;;110.40;31.43;;;;;;;1.97;77.70;103174.13;5051214;28;20024;-79
2022/01/26 08:14:41;;;;;;;101.47;30.80;;;;;;;1.97;77.65;103177.59;5048246;28;20024;-79
2022/01/26 08:17:06;;;;;;;110.10;33.33;;;;;;;1.97;78.24;103187.88;5051316;28;20468;-79
2022/01/26 08:19:32;;;;;;;112.30;32.43;;;;;;;1.97;78.08;103199.81;5049116;28;20040;-79
2022/01/26 08:22:00;;;;;;;107.03;31.97;;;;;;;1.99;78.17;103197.34;5052519;28;20040;-79
2022/01/26 08:24:26;;;;;;;107.93;31.77;;;;;;;2.00;78.27;103191.41;5050157;28;20095;-79
2022/01/26 08:26:52;;;;;;;110.30;32.40;;;;;;;1.99;78.16;103180.22;5048590;28;20025;-79
2022/01/26 08:29:24;;;;;;;104.00;31.20;;;;;;;2.00;78.54;103176.00;5048730;28;20067;-79
2022/01/26 08:31:49;;;;;;;;;;;;;;;2.03;77.15;103178.72;5049661;28;20384;-79
2022/01/26 08:34:14;;;;;;;98.77;30.27;;;;;;;2.01;78.62;103180.31;5048885;28;19931;-79
2022/01/26 08:36:40;;;;;;;104.67;31.80;;;;;;;2.01;78.61;103188.03;5044856;28;20552;-79
2022/01/26 08:39:06;;;;;;;106.97;32.17;;;;;;;2.01;79.13;103188.03;5048342;28;20091;-79
2022/01/26 08:41:31;;;;;;;103.33;30.07;;;;;;;2.01;78.79;103177.75;5045208;28;20403;-79
2022/01/26 08:43:57;;;;;;;105.00;32.00;;;;;;;2.04;79.05;103185.63;5046614;28;20553;-79
2022/01/26 08:46:22;;;;;;;110.87;32.00;;;;;;;2.04;79.27;103194.19;5047234;28;20479;-79
2022/01/26 08:48:48;;;;;;;102.27;31.43;;;;;;;2.06;79.09;103195.13;5049121;28;20108;-79
2022/01/26 08:51:14;;;;;;;100.87;31.13;;;;;;;2.08;79.37;103195.19;5052752;28;20021;-79
2022/01/26 08:53:40;;;;;;;103.77;30.97;;;;;;;2.10;78.81;103186.78;5053376;28;20543;-79
2022/01/26 08:56:05;;;;;;;95.80;30.50;;;;;;;2.12;79.02;103200.59;5051391;28;20032;-79
2022/01/26 08:58:30;;;;;;;106.77;30.53;;;;;;;2.13;79.32;103201.44;5053030;28;20021;-79
2022/01/26 09:00:57;;;;;;;98.80;30.80;;;;;;;2.16;79.26;103188.75;5051917;28;20020;-79
2022/01/26 09:03:22;;;;;;;99.50;29.33;;;;;;;2.17;79.53;103185.38;5053774;28;20025;-79
2022/01/26 09:05:47;;;;;;;99.73;29.97;;;;;;;2.18;79.24;103184.56;5053601;28;20178;-79
2022/01/26 09:08:13;;;;;;;91.23;30.27;;;;;;;2.19;79.14;103181.19;5053595;28;20017;-79
2022/01/26 09:10:39;;;;;;;94.57;30.30;;;;;;;2.20;79.18;103172.69;5052064;28;20510;-79
2022/01/26 09:13:05;;;;;;;95.53;30.73;;;;;;;2.21;79.21;103169.31;5051113;28;20028;-79
2022/01/26 09:15:31;;;;;;;98.50;29.53;;;;;;;2.23;79.53;103179.66;5052634;28;20380;-79
2022/01/26 09:17:59;;;;;;;95.77;30.60;;;;;;;2.25;79.24;103186.59;5068116;28;20317;-79
2022/01/26 09:20:25;;;;;;;104.10;29.37;;;;;;;2.25;79.20;103189.16;5051633;28;20061;-79
2022/01/26 09:22:50;;;;;;;94.40;29.63;;;;;;;2.26;79.23;103182.38;5052974;28;20122;-80
2022/01/26 09:25:16;;;;;;;92.07;28.83;;;;;;;2.26;79.46;103198.63;5052663;28;20471;-80
2022/01/26 09:27:41;;;;;;;101.60;30.30;;;;;;;2.27;79.61;103195.25;5052699;28;20373;-79
2022/01/26 09:30:08;;;;;;;93.60;30.27;;;;;;;2.28;79.35;103199.59;5051923;28;20024;-80
2022/01/26 09:32:33;;;;;;;97.07;28.77;;;;;;;2.28;79.51;103193.59;5050523;28;20021;-80
2022/01/26 09:34:58;;;;;;;93.17;29.00;;;;;;;2.28;79.29;103197.03;5055185;28;20104;-80
2022/01/26 09:37:24;;;;;;;87.80;28.63;;;;;;;2.29;79.51;103185.09;5052096;28;20029;-80
2022/01/26 09:39:49;;;;;;;100.23;30.10;;;;;;;2.30;79.47;103185.94;5055114;28;20096;-79
2022/01/26 09:42:16;;;;;;;94.87;29.37;;;;;;;2.29;79.69;103177.38;5052457;28;20379;-80
2022/01/26 09:44:42;;;;;;;93.03;28.90;;;;;;;2.30;79.47;103181.72;5053395;28;20025;-80
2022/01/26 09:47:09;;;;;;;97.33;30.03;;;;;;;2.32;79.77;103181.75;5051457;28;20086;-80
2022/01/26 09:49:35;;;;;;;96.27;30.33;;;;;;;2.29;79.59;103177.38;5051551;28;20024;-80
2022/01/26 09:52:06;;;;;;;94.83;28.83;;;;;;;2.31;79.61;103174.88;5050166;28;20013;-79
2022/01/26 09:54:32;;;;;;;89.82;27.55;;;;;;;2.31;79.71;103177.44;5059191;28;20468;-79
2022/01/26 09:57:03;;;;;;;100.63;28.63;;;;;;;2.32;79.82;103171.50;5045181;28;20067;-80
2022/01/26 09:59:30;;;;;;;87.78;29.05;;;;;;;2.33;79.80;103170.69;5043482;28;20021;-79
2022/01/26 10:01:55;;;;;;;95.83;29.30;;;;;;;2.34;79.79;103170.75;5049899;28;20091;-79
2022/01/26 10:04:22;;;;;;;89.87;29.07;;;;;;;2.35;79.61;103169.06;5049353;28;20028;-79
2022/01/26 10:07:05;;;;;;;88.07;27.80;;;;;;;2.36;79.52;103168.25;5050049;28;20028;-79
2022/01/26 10:17:42;;;;;;;89.68;28.13;;;;;;;2.41;79.78;103159.94;5049972;28;20499;-79
2022/01/26 10:20:10;;;;;;;89.23;28.07;;;;;;;2.42;79.67;103168.53;5050668;28;20393;-79
2022/01/26 10:22:36;;;;;;;88.20;27.93;;;;;;;2.43;79.69;103170.28;5049901;28;20024;-79
2022/01/26 10:25:13;;;;;;;86.63;27.83;;;;;;;2.46;79.37;103160.16;5050746;28;20037;-79
2022/01/26 10:27:45;;;;;;;84.87;26.97;;;;;;;2.46;79.59;103149.88;5049279;28;20178;-79
2022/01/26 10:30:13;;;;;;;81.88;25.98;;;;;;;2.48;79.17;103149.94;5044878;28;20120;-79
2022/01/26 10:32:40;;;;;;;81.20;26.37;;;;;;;2.47;79.31;103166.19;5043367;28;20480;-79
2022/01/26 10:35:06;;;;;;;83.33;27.43;;;;;;;2.49;79.31;103170.56;5047952;28;20159;-79
2022/01/26 10:37:32;;;;;;;81.50;25.77;;;;;;;2.51;79.19;103186.94;5044276;28;20056;-79
2022/01/26 10:40:15;;;;;;;79.87;27.87;;;;;;;2.51;79.36;103206.59;5048470;28;20061;-79
2022/01/26 10:42:54;;;;;;;82.73;26.77;;;;;;;2.51;79.38;103207.50;5043936;28;20032;-79
2022/01/26 10:45:44;;;;;;;75.60;26.17;;;;;;;2.53;78.92;103200.75;5046090;28;20048;-79
2022/01/26 10:48:28;;;;;;;72.17;25.20;;;;;;;2.55;79.03;103203.38;5046155;28;20017;-79
2022/01/26 10:53:45;;;;;;;69.97;25.47;;;;;;;2.56;78.75;103208.56;5046053;28;20499;-79
2022/01/26 10:56:11;;;;;;;70.87;23.93;;;;;;;2.61;79.11;103211.38;5045952;28;20044;-79
2022/01/26 10:58:36;;;;;;;72.73;24.80;;;;;;;2.63;78.92;103198.59;5047907;28;20056;-79
2022/01/26 11:01:02;;;;;;;68.10;24.67;;;;;;;2.65;79.01;103189.25;5046958;28;20538;-79
2022/01/26 11:03:28;;;;;;;75.00;25.13;;;;;;;2.67;78.79;103185.06;5045710;28;20388;-79
2022/01/26 11:05:53;;;;;;;64.97;24.40;;;;;;;2.67;78.85;103195.34;5044721;28;20031;-79
2022/01/26 11:08:21;;;;;;;64.37;24.43;;;;;;;2.66;79.00;103194.44;5047517;28;20063;-79
2022/01/26 11:10:46;;;;;;;67.83;23.83;;;;;;;2.67;78.83;103183.38;5046702;28;20024;-79
2022/01/26 11:13:23;;;;;;;66.03;23.83;;;;;;;2.71;79.24;103181.84;5042451;28;20032;-79
2022/01/26 11:15:48;;;;;;;68.97;25.03;;;;;;;2.71;79.24;103192.13;5046216;28;20090;-79
2022/01/26 11:18:21;;;;;;;70.23;23.90;;;;;;;2.73;79.30;103191.34;5044316;28;20020;-79
2022/01/26 11:20:50;;;;;;;70.73;24.70;;;;;;;2.74;79.10;103184.50;5047780;28;20068;-79
2022/01/26 11:23:19;;;;;;;63.17;23.07;;;;;;;2.74;79.10;103181.94;5043457;28;20040;-79
2022/01/26 11:25:47;;;;;;;69.27;23.80;;;;;;;2.76;79.41;103175.19;5043962;28;20028;-79
2022/01/26 11:28:21;;;;;;;62.57;23.27;;;;;;;2.78;79.19;103180.41;5043358;28;20033;-79
2022/01/26 11:30:47;;;;;;;63.40;22.70;;;;;;;2.78;79.31;103173.56;5044234;28;20021;-79
2022/01/26 11:33:20;;;;;;;65.53;23.83;;;;;;;2.81;79.37;103171.13;5043449;28;20056;-79
2022/01/26 11:35:49;;;;;;;60.83;23.10;;;;;;;2.82;79.32;103172.91;5044236;28;20025;-79
2022/01/26 11:47:02;;;;;;;67.27;23.50;;;;;;;2.87;78.70;103144.81;5045144;28;20047;-79
2022/01/26 11:49:38;;;;;;;62.00;23.40;;;;;;;2.86;78.89;103146.53;5044117;28;20033;-79
2022/01/26 11:52:05;;;;;;;60.93;22.50;;;;;;;2.88;78.87;103146.56;5044795;28;20057;-79
2022/01/26 11:54:53;;;;;;;65.53;24.90;;;;;;;2.88;79.05;103149.16;5045326;28;20068;-79
2022/01/26 11:57:21;;;;;;;65.80;23.77;;;;;;;2.87;79.04;103137.09;5040998;28;20017;-80
2022/01/26 12:00:03;;;;;;;59.30;23.17;;;;;;;2.90;79.26;103131.22;5043857;28;20032;-80
2022/01/26 12:05:14;;;;;;;65.23;23.53;;;;;;;2.90;79.09;103126.09;5046883;28;20048;-80
2022/01/26 12:07:51;;;;;;;65.43;24.70;;;;;;;2.92;78.87;103127.00;5042624;28;20013;-79
2022/01/26 12:10:32;;;;;;;61.73;23.70;;;;;;;2.92;78.80;103119.28;5043955;28;20021;-79
2022/01/26 12:13:20;;;;;;;66.17;24.93;;;;;;;2.94;78.94;103122.81;5044749;28;20025;-79
2022/01/26 12:18:23;;;;;;;71.40;26.27;;;;;;;2.97;79.22;103120.38;5046028;28;20033;-79
2022/01/26 12:38:26;;;;;;;65.23;24.10;;;;;;;3.06;78.87;103133.66;5048290;28;20114;-79
2022/01/26 12:41:16;;;;;;;63.90;24.93;;;;;;;3.07;79.20;103137.97;5048664;28;20035;-80
2022/01/26 12:43:52;;;;;;;63.93;24.60;;;;;;;3.07;79.17;103137.97;5046839;28;20030;-79
2022/01/26 12:46:24;;;;;;;68.93;24.57;;;;;;;3.07;79.28;103137.97;5047009;28;20017;-79
2022/01/26 12:48:52;;;;;;;66.93;23.87;;;;;;;3.09;79.07;103132.88;5048204;28;20029;-79
2022/01/26 12:51:19;;;;;;;68.77;24.93;;;;;;;3.11;78.76;103126.13;5044451;28;20479;-79
2022/01/26 12:53:51;;;;;;;71.83;24.80;;;;;;;3.14;78.95;103127.13;5046206;28;20330;-79
2022/01/26 12:56:16;;;;;;;65.20;24.20;;;;;;;3.18;79.13;103128.13;5044248;28;20033;-79
2022/01/26 12:58:42;;;;;;;61.83;24.37;;;;;;;3.19;79.02;103123.06;5046411;28;20036;-79
2022/01/26 13:01:11;;;;;;;70.03;26.00;;;;;;;3.21;78.73;103123.09;5045805;28;20021;-79
2022/01/26 13:03:38;;;;;;;63.90;25.13;;;;;;;3.23;78.50;103110.31;5047817;28;20029;-79
2022/01/26 13:06:09;;;;;;;70.70;24.80;;;;;;;3.26;78.70;103115.56;5049273;28;20025;-79
2022/01/26 13:08:51;;;;;;;65.45;25.13;;;;;;;3.30;79.03;103107.16;5047630;28;20113;-79
2022/01/26 13:11:30;;;;;;;;;;;;;;;3.35;78.61;103103.09;5045897;28;20031;-79
2022/01/26 13:14:23;;;;;;;62.87;22.83;;;;;;;3.31;78.51;103101.22;5049491;28;20867;-79
2022/01/26 13:25:05;;;;;;;61.50;24.87;;;;;;;3.31;78.34;103098.63;5046366;28;20041;-79
2022/01/26 13:27:45;;;;;;;68.40;24.13;;;;;;;3.31;77.84;103093.50;5045011;28;20040;-79
2022/01/26 13:33:10;;;;;;;63.33;24.30;;;;;;;3.41;77.76;103076.75;5047371;28;20033;-79
2022/01/26 13:35:59;;;;;;;57.67;23.17;;;;;;;3.42;77.88;103079.34;5048519;28;20044;-79
2022/01/26 13:48:59;;;;;;;56.00;23.57;;;;;;;3.40;77.81;103068.16;5047251;28;20506;-79
2022/01/26 13:51:38;;;;;;;61.37;23.90;;;;;;;3.41;77.95;103067.34;5045853;28;20048;-79
2022/01/26 13:56:54;;;;;;;;;;;;;;;3.44;78.06;103075.16;5047611;28;20044;-79
2022/01/26 14:01:47;;;;;;;57.87;23.57;;;;;;;3.47;77.78;103064.13;5044583;28;20029;-79
2022/01/26 14:04:15;;;;;;;56.80;22.73;;;;;;;3.48;77.23;103056.47;5045099;28;20028;-79
2022/01/26 14:06:41;;;;;;;62.43;23.90;;;;;;;3.47;77.42;103053.84;5040929;28;20115;-79